Time;durP1;ratioP1;P1;durP2;ratioP2;P2;SDS_P1;SDS_P2;PMS_P1;PMS_P2;Temp;Humidity;BMP_temperature;BMP_pressure;BME280_temperature;BME280_humidity;BME280_pressure;Samples;Min_cycle;Max_cycle;Signal;HPM_P1;HPM_P2
2021/10/09 00:00:53;;;;;;;;;;;;;;;;;;2114977;28;19973;-46
2021/10/09 00:01:54;;;;;;;;;;;;;;;;;;2115209;28;20023;-45
2021/10/09 00:02:55;;;;;;;;;;;;;;;;;;2115249;28;19931;-45
2021/10/09 00:03:55;;;;;;;;;;;;;;;;;;2115183;28;19924;-45
2021/10/09 00:04:56;;;;;;;;;;;;;;;;;;2115177;28;20022;-45
2021/10/09 00:05:57;;;;;;;;;;;;;;;;;;2115021;28;19978;-45
2021/10/09 00:06:58;;;;;;;;;;;;;;;;;;2114989;28;20441;-45
2021/10/09 00:07:59;;;;;;;;;;;;;;;;;;2115051;28;19935;-45
2021/10/09 00:09:01;;;;;;;;;;;;;;;;;;2115018;28;20061;-45
2021/10/09 00:10:04;;;;;;;;;;;;;;;;;;2115234;28;19928;-45
2021/10/09 00:11:06;;;;;;;;;;;;;;;;;;2114945;28;19967;-45
2021/10/09 00:12:07;;;;;;;;;;;;;;;;;;2115100;28;20344;-45
2021/10/09 00:13:08;;;;;;;;;;;;;;;;;;2114948;28;19934;-45
2021/10/09 00:14:09;;;;;;;;;;;;;;;;;;2115128;28;19935;-45
2021/10/09 00:15:10;;;;;;;;;;;;;;;;;;2114785;28;20273;-45
2021/10/09 00:16:11;;;;;;;;;;;;;;;;;;2114061;28;19927;-45
2021/10/09 00:17:14;;;;;;;;;;;;;;;;;;2115121;28;19966;-45
2021/10/09 00:18:15;;;;;;;;;;;;;;;;;;2114967;28;19967;-44
2021/10/09 00:19:16;;;;;;;;;;;;;;;;;;2114972;28;19930;-45
2021/10/09 00:20:17;;;;;;;;;;;;;;;;;;2114829;28;19972;-45
2021/10/09 00:21:18;;;;;;;;;;;;;;;;;;2115084;28;19931;-45
2021/10/09 00:22:18;;;;;;;;;;;;;;;;;;2114932;28;20295;-45
2021/10/09 00:23:19;;;;;;;;;;;;;;;;;;2115176;28;20537;-45
2021/10/09 00:24:20;;;;;;;;;;;;;;;;;;2114668;28;19924;-45
2021/10/09 00:25:21;;;;;;;;;;;;;;;;;;2115148;28;19962;-45
2021/10/09 00:26:22;;;;;;;;;;;;;;;;;;2115051;28;19924;-45
2021/10/09 00:27:23;;;;;;;;;;;;;;;;;;2115174;28;19969;-44
2021/10/09 00:28:23;;;;;;;;;;;;;;;;;;2114917;28;19927;-45
2021/10/09 00:29:24;;;;;;;;;;;;;;;;;;2115228;28;20085;-45
2021/10/09 00:30:25;;;;;;;;;;;;;;;;;;2114721;28;20006;-45
2021/10/09 00:31:26;;;;;;;;;;;;;;;;;;2115036;28;19924;-45
2021/10/09 00:32:27;;;;;;;;;;;;;;;;;;2114813;28;19980;-45
2021/10/09 00:33:28;;;;;;;;;;;;;;;;;;2115010;28;20399;-45
2021/10/09 00:34:28;;;;;;;;;;;;;;;;;;2114833;28;19924;-45
2021/10/09 00:35:29;;;;;;;;;;;;;;;;;;2115123;28;19931;-45
2021/10/09 00:36:30;;;;;;;;;;;;;;;;;;2114666;28;20269;-45
2021/10/09 00:37:31;;;;;;;;;;;;;;;;;;2115117;28;20365;-45
2021/10/09 00:38:31;;;;;;;;;;;;;;;;;;2114745;28;19930;-45
2021/10/09 00:39:32;;;;;;;;;;;;;;;;;;2114989;28;19977;-45
2021/10/09 00:40:33;;;;;;;;;;;;;;;;;;2114622;28;19924;-45
2021/10/09 00:41:34;;;;;;;;;;;;;;;;;;2114932;28;19928;-45
2021/10/09 00:42:35;;;;;;;;;;;;;;;;;;2114716;28;19924;-45
2021/10/09 00:43:36;;;;;;;;;;;;;;;;;;2115053;28;19924;-45
2021/10/09 00:44:37;;;;;;;;;;;;;;;;;;2114772;28;19924;-45
2021/10/09 00:45:38;;;;;;;;;;;;;;;;;;2115157;28;19928;-44
2021/10/09 00:46:39;;;;;;;;;;;;;;;;;;2114870;28;19924;-45
2021/10/09 00:47:40;;;;;;;;;;;;;;;;;;2114879;28;20285;-45
2021/10/09 00:48:40;;;;;;;;;;;;;;;;;;2114895;28;19924;-45
2021/10/09 00:49:42;;;;;;;;;;;;;;;;;;2114951;28;19931;-45
2021/10/09 00:50:43;;;;;;;;;;;;;;;;;;2114799;28;20022;-45
2021/10/09 00:51:44;;;;;;;;;;;;;;;;;;2114804;28;19924;-44
2021/10/09 00:52:45;;;;;;;;;;;;;;;;;;2114768;28;20174;-45
2021/10/09 00:53:45;;;;;;;;;;;;;;;;;;2114698;28;19930;-45
2021/10/09 00:54:46;;;;;;;;;;;;;;;;;;2114821;28;19924;-45
2021/10/09 00:55:47;;;;;;;;;;;;;;;;;;2114580;28;20383;-45
2021/10/09 00:56:48;;;;;;;;;;;;;;;;;;2114823;28;19924;-45
2021/10/09 00:57:48;;;;;;;;;;;;;;;;;;2114995;28;20346;-45
2021/10/09 00:58:49;;;;;;;;;;;;;;;;;;2114797;28;19924;-45
2021/10/09 00:59:50;;;;;;;;;;;;;;;;;;2114861;28;19968;-45
2021/10/09 01:00:51;;;;;;;;;;;;;;;;;;2114574;28;19924;-45
2021/10/09 01:01:52;;;;;;;;;;;;;;;;;;2114796;28;19923;-45
2021/10/09 01:02:53;;;;;;;;;;;;;;;;;;2114798;28;20411;-45
2021/10/09 01:03:54;;;;;;;;;;;;;;;;;;2114682;28;19923;-45
2021/10/09 01:04:54;;;;;;;;;;;;;;;;;;2114636;28;19928;-45
2021/10/09 01:05:55;;;;;;;;;;;;;;;;;;2114525;28;19924;-45
2021/10/09 01:06:56;;;;;;;;;;;;;;;;;;2114888;28;20385;-45
2021/10/09 01:07:57;;;;;;;;;;;;;;;;;;2114543;28;19946;-45
2021/10/09 01:08:58;;;;;;;;;;;;;;;;;;2114934;28;20372;-45
2021/10/09 01:09:58;;;;;;;;;;;;;;;;;;2114577;28;20253;-44
2021/10/09 01:10:59;;;;;;;;;;;;;;;;;;2114785;28;19923;-45
2021/10/09 01:12:00;;;;;;;;;;;;;;;;;;2114628;28;19924;-45
2021/10/09 01:13:04;;;;;;;;;;;;;;;;;;2114846;28;19923;-44
2021/10/09 01:14:04;;;;;;;;;;;;;;;;;;2114664;28;20022;-44
2021/10/09 01:15:05;;;;;;;;;;;;;;;;;;2114786;28;19923;-45
2021/10/09 01:16:06;;;;;;;;;;;;;;;;;;2114541;28;19928;-45
2021/10/09 01:17:07;;;;;;;;;;;;;;;;;;2114611;28;19930;-45
2021/10/09 01:18:08;;;;;;;;;;;;;;;;;;2114841;28;19924;-45
2021/10/09 01:19:08;;;;;;;;;;;;;;;;;;2114466;28;19934;-45
2021/10/09 01:20:09;;;;;;;;;;;;;;;;;;2114835;28;19968;-45
2021/10/09 01:21:10;;;;;;;;;;;;;;;;;;2114446;28;19934;-44
2021/10/09 01:22:11;;;;;;;;;;;;;;;;;;2114645;28;19932;-45
2021/10/09 01:23:12;;;;;;;;;;;;;;;;;;2114428;28;19923;-45
2021/10/09 01:24:13;;;;;;;;;;;;;;;;;;2114613;28;19923;-44
2021/10/09 01:25:13;;;;;;;;;;;;;;;;;;2114504;28;19928;-45
2021/10/09 01:26:14;;;;;;;;;;;;;;;;;;2114586;28;20340;-45
2021/10/09 01:27:15;;;;;;;;;;;;;;;;;;2114135;28;19924;-45
2021/10/09 01:28:16;;;;;;;;;;;;;;;;;;2114712;28;19930;-45
2021/10/09 01:29:17;;;;;;;;;;;;;;;;;;2114587;28;20288;-45
2021/10/09 01:30:18;;;;;;;;;;;;;;;;;;2114596;28;19924;-45
2021/10/09 01:31:18;;;;;;;;;;;;;;;;;;2114479;28;20184;-45
2021/10/09 01:32:19;;;;;;;;;;;;;;;;;;2114608;28;19977;-45
2021/10/09 01:33:20;;;;;;;;;;;;;;;;;;2114516;28;19993;-45
2021/10/09 01:34:21;;;;;;;;;;;;;;;;;;2114659;28;20280;-44
2021/10/09 01:35:22;;;;;;;;;;;;;;;;;;2114294;28;19931;-45
2021/10/09 01:36:23;;;;;;;;;;;;;;;;;;2114450;28;19923;-44
2021/10/09 01:37:23;;;;;;;;;;;;;;;;;;2114453;28;19930;-45
2021/10/09 01:38:24;;;;;;;;;;;;;;;;;;2114642;28;19939;-44
2021/10/09 01:39:25;;;;;;;;;;;;;;;;;;2114338;28;20296;-45
2021/10/09 01:40:26;;;;;;;;;;;;;;;;;;2114477;28;20403;-45
2021/10/09 01:41:26;;;;;;;;;;;;;;;;;;2114284;28;19931;-45
2021/10/09 01:42:27;;;;;;;;;;;;;;;;;;2114583;28;20230;-45
2021/10/09 01:43:28;;;;;;;;;;;;;;;;;;2114524;28;19924;-45
2021/10/09 01:44:29;;;;;;;;;;;;;;;;;;2114594;28;19924;-45
2021/10/09 01:45:30;;;;;;;;;;;;;;;;;;2114551;28;20384;-45
2021/10/09 01:46:31;;;;;;;;;;;;;;;;;;2114311;28;20377;-45
2021/10/09 01:47:31;;;;;;;;;;;;;;;;;;2114862;28;19928;-45
2021/10/09 01:48:32;;;;;;;;;;;;;;;;;;2114202;28;19931;-44
2021/10/09 01:49:33;;;;;;;;;;;;;;;;;;2114582;28;19930;-45
2021/10/09 01:50:34;;;;;;;;;;;;;;;;;;2114241;28;19927;-44
2021/10/09 01:51:34;;;;;;;;;;;;;;;;;;2114413;28;20425;-44
2021/10/09 01:52:35;;;;;;;;;;;;;;;;;;2114285;28;20584;-45
2021/10/09 01:53:36;;;;;;;;;;;;;;;;;;2114581;28;19930;-45
2021/10/09 01:54:37;;;;;;;;;;;;;;;;;;2114173;28;19924;-45
2021/10/09 01:55:38;;;;;;;;;;;;;;;;;;2114427;28;19932;-45
2021/10/09 01:56:39;;;;;;;;;;;;;;;;;;2114279;28;19923;-45
2021/10/09 01:57:40;;;;;;;;;;;;;;;;;;2114629;28;20010;-45
2021/10/09 01:58:40;;;;;;;;;;;;;;;;;;2114296;28;19948;-44
2021/10/09 01:59:41;;;;;;;;;;;;;;;;;;2114472;28;19949;-44
2021/10/09 02:00:42;;;;;;;;;;;;;;;;;;2114223;28;19924;-45
2021/10/09 02:01:43;;;;;;;;;;;;;;;;;;2114468;28;19931;-45
2021/10/09 02:02:44;;;;;;;;;;;;;;;;;;2114241;28;19928;-45
2021/10/09 02:03:47;;;;;;;;;;;;;;;;;;2114493;28;19924;-45
2021/10/09 02:04:48;;;;;;;;;;;;;;;;;;2114277;28;19930;-45
2021/10/09 02:05:49;;;;;;;;;;;;;;;;;;2114323;28;19946;-45
2021/10/09 02:06:50;;;;;;;;;;;;;;;;;;2114314;28;20018;-45
2021/10/09 02:07:51;;;;;;;;;;;;;;;;;;2114632;28;19924;-44
2021/10/09 02:08:51;;;;;;;;;;;;;;;;;;2114261;28;19931;-44
2021/10/09 02:09:52;;;;;;;;;;;;;;;;;;2114540;28;20043;-45
2021/10/09 02:10:56;;;;;;;;;;;;;;;;;;2114050;28;19975;-45
2021/10/09 02:11:57;;;;;;;;;;;;;;;;;;2114566;28;19924;-45
2021/10/09 02:13:03;;;;;;;;;;;;;;;;;;2114218;28;20373;-45
2021/10/09 02:14:07;;;;;;;;;;;;;;;;;;2114617;28;20014;-45
2021/10/09 02:15:12;;;;;;;;;;;;;;;;;;2114341;28;19923;-45
2021/10/09 02:16:22;;;;;;;;;;;;;;;;;;2114299;28;20001;-45
2021/10/09 02:18:50;;;;;;;;;;;;;;;;;;2114073;28;19954;-45
2021/10/09 02:25:34;;;;;;;;;;;;;;;;;;2114099;28;20034;-45
2021/10/09 02:26:34;;;;;;;;;;;;;;;;;;2114194;28;20388;-45
2021/10/09 02:27:35;;;;;;;;;;;;;;;;;;2114302;28;19931;-45
2021/10/09 02:28:36;;;;;;;;;;;;;;;;;;2114142;28;19923;-45
2021/10/09 02:29:37;;;;;;;;;;;;;;;;;;2114451;28;19924;-45
2021/10/09 02:30:38;;;;;;;;;;;;;;;;;;2114142;28;19930;-45
2021/10/09 02:31:39;;;;;;;;;;;;;;;;;;2114413;28;19924;-44
2021/10/09 02:32:40;;;;;;;;;;;;;;;;;;2114060;28;20377;-45
2021/10/09 02:33:41;;;;;;;;;;;;;;;;;;2114200;28;19932;-45
2021/10/09 02:34:41;;;;;;;;;;;;;;;;;;2114064;28;19924;-45
2021/10/09 02:35:42;;;;;;;;;;;;;;;;;;2114093;28;19973;-45
2021/10/09 02:36:43;;;;;;;;;;;;;;;;;;2114117;28;20434;-45
2021/10/09 02:37:44;;;;;;;;;;;;;;;;;;2114196;28;19931;-45
2021/10/09 02:38:45;;;;;;;;;;;;;;;;;;2114104;28;19927;-45
2021/10/09 02:39:46;;;;;;;;;;;;;;;;;;2115735;28;19963;-45
2021/10/09 02:40:47;;;;;;;;;;;;;;;;;;2115602;28;19924;-45
2021/10/09 02:41:47;;;;;;;;;;;;;;;;;;2115814;28;20327;-45
2021/10/09 02:42:48;;;;;;;;;;;;;;;;;;2115658;28;19928;-45
2021/10/09 02:43:49;;;;;;;;;;;;;;;;;;2115699;28;19946;-45
2021/10/09 02:44:50;;;;;;;;;;;;;;;;;;2115575;28;19944;-45
2021/10/09 02:45:51;;;;;;;;;;;;;;;;;;2115795;28;19923;-45
2021/10/09 02:46:51;;;;;;;;;;;;;;;;;;2115473;28;19923;-45
2021/10/09 02:47:52;;;;;;;;;;;;;;;;;;2115644;28;19924;-45
2021/10/09 02:48:53;;;;;;;;;;;;;;;;;;2115526;28;19923;-44
2021/10/09 02:49:54;;;;;;;;;;;;;;;;;;2115794;28;20304;-45
2021/10/09 02:50:55;;;;;;;;;;;;;;;;;;2115245;28;20316;-45
2021/10/09 02:51:56;;;;;;;;;;;;;;;;;;2115728;28;20433;-45
2021/10/09 02:52:56;;;;;;;;;;;;;;;;;;2115659;28;19924;-45
2021/10/09 02:53:57;;;;;;;;;;;;;;;;;;2115559;28;19923;-45
2021/10/09 02:54:58;;;;;;;;;;;;;;;;;;2115574;28;19941;-44
2021/10/09 02:55:59;;;;;;;;;;;;;;;;;;2115361;28;19927;-45
2021/10/09 02:57:00;;;;;;;;;;;;;;;;;;2115698;28;20334;-45
2021/10/09 02:58:00;;;;;;;;;;;;;;;;;;2115414;28;20377;-45
2021/10/09 02:59:03;;;;;;;;;;;;;;;;;;2115746;28;19924;-45
2021/10/09 03:00:04;;;;;;;;;;;;;;;;;;2115436;28;20014;-44
2021/10/09 03:01:05;;;;;;;;;;;;;;;;;;2115603;28;20357;-44
2021/10/09 03:02:05;;;;;;;;;;;;;;;;;;2115627;28;20398;-45
2021/10/09 03:03:06;;;;;;;;;;;;;;;;;;2115628;28;19931;-45
2021/10/09 03:04:07;;;;;;;;;;;;;;;;;;2115497;28;19923;-45
2021/10/09 03:05:08;;;;;;;;;;;;;;;;;;2115547;28;20433;-44
2021/10/09 03:06:09;;;;;;;;;;;;;;;;;;2115363;28;20376;-45
2021/10/09 03:07:10;;;;;;;;;;;;;;;;;;2115629;28;19924;-45
2021/10/09 03:08:11;;;;;;;;;;;;;;;;;;2115451;28;19988;-45
2021/10/09 03:09:11;;;;;;;;;;;;;;;;;;2115478;28;20010;-45
2021/10/09 03:10:12;;;;;;;;;;;;;;;;;;2115482;28;20350;-45
2021/10/09 03:11:13;;;;;;;;;;;;;;;;;;2115447;28;19985;-44
2021/10/09 03:12:14;;;;;;;;;;;;;;;;;;2115493;28;19934;-45
2021/10/09 03:13:15;;;;;;;;;;;;;;;;;;2115368;28;19924;-45
2021/10/09 03:14:16;;;;;;;;;;;;;;;;;;2115363;28;19976;-45
2021/10/09 03:15:16;;;;;;;;;;;;;;;;;;2115655;28;19923;-45
2021/10/09 03:16:17;;;;;;;;;;;;;;;;;;2115330;28;19923;-44
2021/10/09 03:17:18;;;;;;;;;;;;;;;;;;2115601;28;20340;-45
2021/10/09 03:18:19;;;;;;;;;;;;;;;;;;2115257;28;20410;-45
2021/10/09 03:19:20;;;;;;;;;;;;;;;;;;2115393;28;19924;-45
2021/10/09 03:20:21;;;;;;;;;;;;;;;;;;2115471;28;19931;-45
2021/10/09 03:21:21;;;;;;;;;;;;;;;;;;2115492;28;20064;-45
2021/10/09 03:22:22;;;;;;;;;;;;;;;;;;2115510;28;19923;-44
2021/10/09 03:23:23;;;;;;;;;;;;;;;;;;2115223;28;19930;-45
2021/10/09 03:24:24;;;;;;;;;;;;;;;;;;2115539;28;20070;-45
2021/10/09 03:25:25;;;;;;;;;;;;;;;;;;2115223;28;19949;-45
2021/10/09 03:26:25;;;;;;;;;;;;;;;;;;2115576;28;19923;-45
2021/10/09 03:27:26;;;;;;;;;;;;;;;;;;2115188;28;20014;-45
2021/10/09 03:28:27;;;;;;;;;;;;;;;;;;2115423;28;20386;-45
2021/10/09 03:29:28;;;;;;;;;;;;;;;;;;2115160;28;19931;-44
2021/10/09 03:30:29;;;;;;;;;;;;;;;;;;2115527;28;19976;-45
2021/10/09 03:31:30;;;;;;;;;;;;;;;;;;2115063;28;20316;-45
2021/10/09 03:32:31;;;;;;;;;;;;;;;;;;2115443;28;19924;-45
2021/10/09 03:33:32;;;;;;;;;;;;;;;;;;2115276;28;19923;-45
2021/10/09 03:34:33;;;;;;;;;;;;;;;;;;2115611;28;20018;-44
2021/10/09 03:35:34;;;;;;;;;;;;;;;;;;2115073;28;19924;-45
2021/10/09 03:36:34;;;;;;;;;;;;;;;;;;2115341;28;19928;-44
2021/10/09 03:37:35;;;;;;;;;;;;;;;;;;2115061;28;19924;-45
2021/10/09 03:38:38;;;;;;;;;;;;;;;;;;2115308;28;20265;-45
2021/10/09 03:39:41;;;;;;;;;;;;;;;;;;2115110;28;20410;-45
2021/10/09 03:40:46;;;;;;;;;;;;;;;;;;2115370;28;19924;-45
2021/10/09 03:41:50;;;;;;;;;;;;;;;;;;2115041;28;20387;-45
2021/10/09 03:42:53;;;;;;;;;;;;;;;;;;2115391;28;20018;-45
2021/10/09 03:43:54;;;;;;;;;;;;;;;;;;2115275;28;20011;-45
2021/10/09 03:44:58;;;;;;;;;;;;;;;;;;2115392;28;19928;-44
2021/10/09 03:46:02;;;;;;;;;;;;;;;;;;2115076;28;20330;-45
2021/10/09 03:47:15;;;;;;;;;;;;;;;;;;2115404;28;19924;-44
2021/10/09 03:48:24;;;;;;;;;;;;;;;;;;2115068;28;20077;-45
2021/10/09 03:49:36;;;;;;;;;;;;;;;;;;2115372;28;20014;-45
2021/10/09 03:53:15;;;;;;;;;;;;;;;;;;2115492;28;19980;-44
2021/10/09 03:54:16;;;;;;;;;;;;;;;;;;2114958;28;20035;-45
2021/10/09 03:55:17;;;;;;;;;;;;;;;;;;2115235;28;19973;-45
2021/10/09 03:56:18;;;;;;;;;;;;;;;;;;2114960;28;19923;-45
2021/10/09 03:57:19;;;;;;;;;;;;;;;;;;2115483;28;19924;-45
2021/10/09 03:58:20;;;;;;;;;;;;;;;;;;2115095;28;20006;-45
2021/10/09 03:59:20;;;;;;;;;;;;;;;;;;2115300;28;20173;-45
2021/10/09 04:00:21;;;;;;;;;;;;;;;;;;2115038;28;19924;-45
2021/10/09 04:01:22;;;;;;;;;;;;;;;;;;2115177;28;20300;-45
2021/10/09 04:02:23;;;;;;;;;;;;;;;;;;2115171;28;20385;-45
2021/10/09 04:03:24;;;;;;;;;;;;;;;;;;2115022;28;19924;-45
2021/10/09 04:04:27;;;;;;;;;;;;;;;;;;2115148;28;20451;-44
2021/10/09 04:05:29;;;;;;;;;;;;;;;;;;2114895;28;20048;-45
2021/10/09 04:06:30;;;;;;;;;;;;;;;;;;2115307;28;20439;-45
2021/10/09 04:07:31;;;;;;;;;;;;;;;;;;2115129;28;19924;-44
2021/10/09 04:08:32;;;;;;;;;;;;;;;;;;2115207;28;20303;-44
2021/10/09 04:09:33;;;;;;;;;;;;;;;;;;2114995;28;19927;-45
2021/10/09 04:10:33;;;;;;;;;;;;;;;;;;2115107;28;19946;-45
2021/10/09 04:11:34;;;;;;;;;;;;;;;;;;2114845;28;19985;-45
2021/10/09 04:12:35;;;;;;;;;;;;;;;;;;2115113;28;19923;-44
2021/10/09 04:13:36;;;;;;;;;;;;;;;;;;2115017;28;19924;-44
2021/10/09 04:14:37;;;;;;;;;;;;;;;;;;2115096;28;19984;-45
2021/10/09 04:15:38;;;;;;;;;;;;;;;;;;2115120;28;20390;-45
2021/10/09 04:16:38;;;;;;;;;;;;;;;;;;2115255;28;19924;-45
2021/10/09 04:17:39;;;;;;;;;;;;;;;;;;2115069;28;20296;-44
2021/10/09 04:18:40;;;;;;;;;;;;;;;;;;2115069;28;19928;-44
2021/10/09 04:19:41;;;;;;;;;;;;;;;;;;2114870;28;19924;-44
2021/10/09 04:20:42;;;;;;;;;;;;;;;;;;2114966;28;19924;-44
2021/10/09 04:21:42;;;;;;;;;;;;;;;;;;2114958;28;19931;-44
2021/10/09 04:22:43;;;;;;;;;;;;;;;;;;2115207;28;19923;-44
2021/10/09 04:23:44;;;;;;;;;;;;;;;;;;2114800;28;20394;-45
2021/10/09 04:24:45;;;;;;;;;;;;;;;;;;2115134;28;19927;-44
2021/10/09 04:25:46;;;;;;;;;;;;;;;;;;2114904;28;19924;-44
2021/10/09 04:26:46;;;;;;;;;;;;;;;;;;2115040;28;19923;-45
2021/10/09 04:27:47;;;;;;;;;;;;;;;;;;2114802;28;19924;-45
2021/10/09 04:28:48;;;;;;;;;;;;;;;;;;2114988;28;19924;-44
2021/10/09 04:29:52;;;;;;;;;;;;;;;;;;2114828;28;20343;-45
2021/10/09 04:30:53;;;;;;;;;;;;;;;;;;2115165;28;19924;-45
2021/10/09 04:31:53;;;;;;;;;;;;;;;;;;2115139;28;19927;-45
2021/10/09 04:32:54;;;;;;;;;;;;;;;;;;2114961;28;20331;-44
2021/10/09 04:33:55;;;;;;;;;;;;;;;;;;2114923;28;19950;-45
2021/10/09 04:34:56;;;;;;;;;;;;;;;;;;2114894;28;19928;-44
2021/10/09 04:35:57;;;;;;;;;;;;;;;;;;2115010;28;19923;-44
2021/10/09 04:36:58;;;;;;;;;;;;;;;;;;2114846;28;19973;-45
2021/10/09 04:37:58;;;;;;;;;;;;;;;;;;2114775;28;20499;-45
2021/10/09 04:38:59;;;;;;;;;;;;;;;;;;2114889;28;19954;-45
2021/10/09 04:40:00;;;;;;;;;;;;;;;;;;2114892;28;19947;-45
2021/10/09 04:41:01;;;;;;;;;;;;;;;;;;2114902;28;19923;-45
2021/10/09 04:42:02;;;;;;;;;;;;;;;;;;2114931;28;19928;-45
2021/10/09 04:43:03;;;;;;;;;;;;;;;;;;2115012;28;19927;-44
2021/10/09 04:44:03;;;;;;;;;;;;;;;;;;2114824;28;20352;-44
2021/10/09 04:45:04;;;;;;;;;;;;;;;;;;2114941;28;19934;-44
2021/10/09 04:46:05;;;;;;;;;;;;;;;;;;2114771;28;19932;-44
2021/10/09 04:47:06;;;;;;;;;;;;;;;;;;2114847;28;20006;-44
2021/10/09 04:48:07;;;;;;;;;;;;;;;;;;2114769;28;19930;-44
2021/10/09 04:49:09;;;;;;;;;;;;;;;;;;2114939;28;20044;-44
2021/10/09 04:50:09;;;;;;;;;;;;;;;;;;2114918;28;20015;-44
2021/10/09 04:51:10;;;;;;;;;;;;;;;;;;2114624;28;19934;-44
2021/10/09 04:52:11;;;;;;;;;;;;;;;;;;2114660;28;19976;-44
2021/10/09 04:53:12;;;;;;;;;;;;;;;;;;2114733;28;19938;-44
2021/10/09 04:54:13;;;;;;;;;;;;;;;;;;2114878;28;19931;-45
2021/10/09 04:55:14;;;;;;;;;;;;;;;;;;2114688;28;20346;-45
2021/10/09 04:56:14;;;;;;;;;;;;;;;;;;2114784;28;19950;-44
2021/10/09 04:57:15;;;;;;;;;;;;;;;;;;2114604;28;19981;-43
2021/10/09 04:58:16;;;;;;;;;;;;;;;;;;2114775;28;19924;-43
2021/10/09 04:59:17;;;;;;;;;;;;;;;;;;2114790;28;19953;-44
2021/10/09 05:00:17;;;;;;;;;;;;;;;;;;2114849;28;19924;-44
2021/10/09 05:01:18;;;;;;;;;;;;;;;;;;2114879;28;20027;-45
2021/10/09 05:02:19;;;;;;;;;;;;;;;;;;2114078;28;19924;-44
2021/10/09 05:03:20;;;;;;;;;;;;;;;;;;2114828;28;19924;-45
2021/10/09 05:04:21;;;;;;;;;;;;;;;;;;2114569;28;19973;-46
2021/10/09 05:05:22;;;;;;;;;;;;;;;;;;2114811;28;20292;-44
2021/10/09 05:06:23;;;;;;;;;;;;;;;;;;2114459;28;19981;-45
2021/10/09 05:07:23;;;;;;;;;;;;;;;;;;2114912;28;19936;-46
2021/10/09 05:08:24;;;;;;;;;;;;;;;;;;2114594;28;20296;-44
2021/10/09 05:09:25;;;;;;;;;;;;;;;;;;2114940;28;20300;-44
2021/10/09 05:10:28;;;;;;;;;;;;;;;;;;2114408;28;20169;-45
2021/10/09 05:11:37;;;;;;;;;;;;;;;;;;2114757;28;19935;-45
2021/10/09 05:12:37;;;;;;;;;;;;;;;;;;2114534;28;20388;-45
2021/10/09 05:13:38;;;;;;;;;;;;;;;;;;2114727;28;20285;-45
2021/10/09 05:14:39;;;;;;;;;;;;;;;;;;2114457;28;19951;-45
2021/10/09 05:15:41;;;;;;;;;;;;;;;;;;2114891;28;19947;-46
2021/10/09 05:16:42;;;;;;;;;;;;;;;;;;2114884;28;20052;-54
2021/10/09 05:17:42;;;;;;;;;;;;;;;;;;2114680;28;20292;-54
2021/10/09 05:18:43;;;;;;;;;;;;;;;;;;2114534;28;19923;-55
2021/10/09 05:19:44;;;;;;;;;;;;;;;;;;2114713;28;20304;-55
2021/10/09 05:20:45;;;;;;;;;;;;;;;;;;2114477;28;19931;-55
2021/10/09 05:21:46;;;;;;;;;;;;;;;;;;2114774;28;19924;-54
2021/10/09 05:22:46;;;;;;;;;;;;;;;;;;2114417;28;19931;-55
2021/10/09 05:23:47;;;;;;;;;;;;;;;;;;2114615;28;19924;-55
2021/10/09 05:24:50;;;;;;;;;;;;;;;;;;2114634;28;19928;-54
2021/10/09 05:25:51;;;;;;;;;;;;;;;;;;2114638;28;20006;-55
2021/10/09 05:26:52;;;;;;;;;;;;;;;;;;2114369;28;20019;-55
2021/10/09 05:27:56;;;;;;;;;;;;;;;;;;2114803;28;19924;-55
2021/10/09 05:28:57;;;;;;;;;;;;;;;;;;2114316;28;20467;-54
2021/10/09 05:30:04;;;;;;;;;;;;;;;;;;2114653;28;19931;-55
2021/10/09 05:31:05;;;;;;;;;;;;;;;;;;2114440;28;19939;-55
2021/10/09 05:32:07;;;;;;;;;;;;;;;;;;2114637;28;19923;-54
2021/10/09 05:33:15;;;;;;;;;;;;;;;;;;2114408;28;20372;-54
2021/10/09 05:34:16;;;;;;;;;;;;;;;;;;2114781;28;20403;-54
2021/10/09 05:35:17;;;;;;;;;;;;;;;;;;2114432;28;19924;-55
2021/10/09 05:36:18;;;;;;;;;;;;;;;;;;2114766;28;19924;-54
2021/10/09 05:37:18;;;;;;;;;;;;;;;;;;2114361;28;20381;-55
2021/10/09 05:38:19;;;;;;;;;;;;;;;;;;2114591;28;20474;-55
2021/10/09 05:39:20;;;;;;;;;;;;;;;;;;2114654;28;19924;-55
2021/10/09 05:40:21;;;;;;;;;;;;;;;;;;2114373;28;20287;-54
2021/10/09 05:41:22;;;;;;;;;;;;;;;;;;2114783;28;19931;-54
2021/10/09 05:42:23;;;;;;;;;;;;;;;;;;2114197;28;19924;-55
2021/10/09 05:43:24;;;;;;;;;;;;;;;;;;2114706;28;19927;-55
2021/10/09 05:44:25;;;;;;;;;;;;;;;;;;2114447;28;20072;-54
2021/10/09 05:45:26;;;;;;;;;;;;;;;;;;2114560;28;19924;-55
2021/10/09 05:46:27;;;;;;;;;;;;;;;;;;2114406;28;19923;-55
2021/10/09 05:47:30;;;;;;;;;;;;;;;;;;2114497;28;19924;-55
2021/10/09 05:48:34;;;;;;;;;;;;;;;;;;2114298;28;19923;-55
2021/10/09 05:49:37;;;;;;;;;;;;;;;;;;2114427;28;19989;-55
2021/10/09 05:50:46;;;;;;;;;;;;;;;;;;2114341;28;19963;-55
2021/10/09 05:51:54;;;;;;;;;;;;;;;;;;2114427;28;19924;-55
2021/10/09 05:52:59;;;;;;;;;;;;;;;;;;2114365;28;20014;-54
2021/10/09 05:54:07;;;;;;;;;;;;;;;;;;2114472;28;20057;-55
2021/10/09 05:55:12;;;;;;;;;;;;;;;;;;2114337;28;20018;-55
2021/10/09 05:56:20;;;;;;;;;;;;;;;;;;2114590;28;20061;-55
2021/10/09 05:57:27;;;;;;;;;;;;;;;;;;2114438;28;20015;-54
2021/10/09 05:58:34;;;;;;;;;;;;;;;;;;2114345;28;20015;-55
2021/10/09 06:00:04;;;;;;;;;;;;;;;;;;2114558;28;19927;-55
2021/10/09 06:32:27;;;;;;;;;;;;;;;;;;2113956;28;20065;-56
2021/10/09 06:37:55;;;;;;;;;;;;;;;;;;2114245;28;20360;-56
2021/10/09 06:48:28;;;;;;;;;;;;;;;;;;2114417;28;20114;-56
2021/10/09 06:59:24;;;;;;;;;;;;;;;;;;2114239;28;19963;-56
2021/10/09 07:00:25;;;;;;;;;;;;;;;;;;2114098;28;19928;-56
2021/10/09 07:01:26;;;;;;;;;;;;;;;;;;2114145;28;19931;-56
2021/10/09 07:02:27;;;;;;;;;;;;;;;;;;2114224;28;19924;-56
2021/10/09 07:03:28;;;;;;;;;;;;;;;;;;2113967;28;20321;-56
2021/10/09 07:04:29;;;;;;;;;;;;;;;;;;2114029;28;19924;-56
2021/10/09 07:05:32;;;;;;;;;;;;;;;;;;2113935;28;20036;-56
2021/10/09 07:06:33;;;;;;;;;;;;;;;;;;2113937;28;20030;-57
2021/10/09 07:07:36;;;;;;;;;;;;;;;;;;2113968;28;19924;-55
2021/10/09 07:08:37;;;;;;;;;;;;;;;;;;2113910;28;20377;-56
2021/10/09 07:09:37;;;;;;;;;;;;;;;;;;2113885;28;19953;-57
2021/10/09 07:10:40;;;;;;;;;;;;;;;;;;2113946;28;19924;-56
2021/10/09 07:11:41;;;;;;;;;;;;;;;;;;2113747;28;19954;-56
2021/10/09 07:12:41;;;;;;;;;;;;;;;;;;2114062;28;19931;-56
2021/10/09 07:13:42;;;;;;;;;;;;;;;;;;2114085;28;20285;-56
2021/10/09 07:14:43;;;;;;;;;;;;;;;;;;2113853;28;19927;-56
2021/10/09 07:15:44;;;;;;;;;;;;;;;;;;2113823;28;19924;-56
2021/10/09 07:16:45;;;;;;;;;;;;;;;;;;2114076;28;19976;-57
2021/10/09 07:17:46;;;;;;;;;;;;;;;;;;2114046;28;20199;-56
2021/10/09 07:18:46;;;;;;;;;;;;;;;;;;2113791;28;19931;-57
2021/10/09 07:19:47;;;;;;;;;;;;;;;;;;2113941;28;19924;-57
2021/10/09 07:20:48;;;;;;;;;;;;;;;;;;2113882;28;20326;-57
2021/10/09 07:21:49;;;;;;;;;;;;;;;;;;2114044;28;20347;-57
2021/10/09 07:23:11;;;;;;;;;;;;;;;;;;2114047;28;19924;-57
2021/10/09 07:24:14;;;;;;;;;;;;;;;;;;2114036;28;19955;-57
2021/10/09 07:25:15;;;;;;;;;;;;;;;;;;2114513;28;20015;-57
2021/10/09 07:26:16;;;;;;;;;;;;;;;;;;2115358;28;20328;-57
2021/10/09 07:27:16;;;;;;;;;;;;;;;;;;2115301;28;19924;-57
2021/10/09 07:28:17;;;;;;;;;;;;;;;;;;2115344;28;19962;-56
2021/10/09 07:29:18;;;;;;;;;;;;;;;;;;2115427;28;20372;-57
2021/10/09 07:30:19;;;;;;;;;;;;;;;;;;2115413;28;20361;-57
2021/10/09 07:31:19;;;;;;;;;;;;;;;;;;2115162;28;19923;-57
2021/10/09 07:32:20;;;;;;;;;;;;;;;;;;2115558;28;19928;-57
2021/10/09 07:33:21;;;;;;;;;;;;;;;;;;2115360;28;19976;-57
2021/10/09 07:34:24;;;;;;;;;;;;;;;;;;2115527;28;19951;-57
2021/10/09 07:35:25;;;;;;;;;;;;;;;;;;2115300;28;20292;-57
2021/10/09 07:36:26;;;;;;;;;;;;;;;;;;2115485;28;19928;-57
2021/10/09 07:37:27;;;;;;;;;;;;;;;;;;2115094;28;19923;-57
2021/10/09 07:38:28;;;;;;;;;;;;;;;;;;2115439;28;19972;-57
2021/10/09 07:39:29;;;;;;;;;;;;;;;;;;2115139;28;19924;-57
2021/10/09 07:40:29;;;;;;;;;;;;;;;;;;2115314;28;19931;-57
2021/10/09 07:41:30;;;;;;;;;;;;;;;;;;2115082;28;19946;-57
2021/10/09 07:42:31;;;;;;;;;;;;;;;;;;2115439;28;20409;-57
2021/10/09 07:43:32;;;;;;;;;;;;;;;;;;2115317;28;19924;-57
2021/10/09 07:44:33;;;;;;;;;;;;;;;;;;2115323;28;20022;-57
2021/10/09 07:45:33;;;;;;;;;;;;;;;;;;2115282;28;19924;-57
2021/10/09 07:46:34;;;;;;;;;;;;;;;;;;2115293;28;20338;-57
2021/10/09 07:47:35;;;;;;;;;;;;;;;;;;2115393;28;19927;-57
2021/10/09 07:48:36;;;;;;;;;;;;;;;;;;2115376;28;19924;-58
2021/10/09 07:49:37;;;;;;;;;;;;;;;;;;2115120;28;20269;-57
2021/10/09 07:50:38;;;;;;;;;;;;;;;;;;2115068;28;19923;-57
2021/10/09 07:51:38;;;;;;;;;;;;;;;;;;2115140;28;20400;-57
2021/10/09 07:52:41;;;;;;;;;;;;;;;;;;2115204;28;19931;-58
2021/10/09 07:53:41;;;;;;;;;;;;;;;;;;2115206;28;20010;-57
2021/10/09 07:54:42;;;;;;;;;;;;;;;;;;2115144;28;19930;-58
2021/10/09 07:55:43;;;;;;;;;;;;;;;;;;2115173;28;19924;-57
2021/10/09 07:56:44;;;;;;;;;;;;;;;;;;2115157;28;20007;-57
2021/10/09 07:57:45;;;;;;;;;;;;;;;;;;2115228;28;20330;-57
2021/10/09 07:58:46;;;;;;;;;;;;;;;;;;2115185;28;19927;-57
2021/10/09 07:59:46;;;;;;;;;;;;;;;;;;2115094;28;19923;-57
2021/10/09 08:00:47;;;;;;;;;;;;;;;;;;2115147;28;19970;-57
2021/10/09 08:01:48;;;;;;;;;;;;;;;;;;2115154;28;19927;-57
2021/10/09 08:02:49;;;;;;;;;;;;;;;;;;2115351;28;20261;-57
2021/10/09 08:03:51;;;;;;;;;;;;;;;;;;2115094;28;20300;-58
2021/10/09 08:04:52;;;;;;;;;;;;;;;;;;2115156;28;20443;-57